sensor_id;sensor_type;location;lat;lon;timestamp;pressure;altitude;pressure_sealevel;temperature;humidity
71956;BME280;59829;50.562;6.258;2022-12-07T00:09:50;95793.50;;;2.38;100.00
71956;BME280;59829;50.562;6.258;2022-12-07T00:19:51;95776.59;;;2.21;100.00
71956;BME280;59829;50.562;6.258;2022-12-07T00:29:51;95774.63;;;2.45;100.00
71956;BME280;59829;50.562;6.258;2022-12-07T00:39:51;95759.59;;;2.42;100.00
71956;BME280;59829;50.562;6.258;2022-12-07T00:59:54;95741.16;;;2.40;100.00
71956;BME280;59829;50.562;6.258;2022-12-07T01:09:57;95745.22;;;2.42;100.00
71956;BME280;59829;50.562;6.258;2022-12-07T01:19:57;95743.56;;;2.43;100.00
71956;BME280;59829;50.562;6.258;2022-12-07T01:29:58;95749.69;;;2.37;100.00
71956;BME280;59829;50.562;6.258;2022-12-07T01:39:58;95760.19;;;2.30;100.00
71956;BME280;59829;50.562;6.258;2022-12-07T01:49:58;95761.25;;;2.26;100.00
71956;BME280;59829;50.562;6.258;2022-12-07T01:59:59;95758.63;;;2.45;100.00
71956;BME280;59829;50.562;6.258;2022-12-07T02:10:21;95750.66;;;2.52;100.00
71956;BME280;59829;50.562;6.258;2022-12-07T02:20:28;95745.31;;;2.58;100.00
71956;BME280;59829;50.562;6.258;2022-12-07T02:30:32;95740.72;;;2.49;100.00
71956;BME280;59829;50.562;6.258;2022-12-07T02:40:44;95734.91;;;2.47;100.00
71956;BME280;59829;50.562;6.258;2022-12-07T02:50:52;95722.94;;;2.51;100.00
71956;BME280;59829;50.562;6.258;2022-12-07T03:11:48;95734.84;;;2.49;100.00
71956;BME280;59829;50.562;6.258;2022-12-07T03:22:06;95737.59;;;2.44;100.00
71956;BME280;59829;50.562;6.258;2022-12-07T03:32:16;95734.69;;;2.52;100.00
71956;BME280;59829;50.562;6.258;2022-12-07T03:42:20;95739.66;;;2.36;100.00
71956;BME280;59829;50.562;6.258;2022-12-07T04:02:33;95714.53;;;2.33;100.00
71956;BME280;59829;50.562;6.258;2022-12-07T04:12:34;95725.38;;;2.35;100.00
71956;BME280;59829;50.562;6.258;2022-12-07T04:22:34;95733.28;;;2.46;100.00
71956;BME280;59829;50.562;6.258;2022-12-07T04:32:34;95716.59;;;2.59;100.00
71956;BME280;59829;50.562;6.258;2022-12-07T04:42:35;95704.84;;;2.58;100.00
71956;BME280;59829;50.562;6.258;2022-12-07T04:52:35;95718.25;;;2.60;100.00
71956;BME280;59829;50.562;6.258;2022-12-07T05:02:35;95708.78;;;2.64;100.00
71956;BME280;59829;50.562;6.258;2022-12-07T05:12:36;95699.78;;;2.58;100.00
71956;BME280;59829;50.562;6.258;2022-12-07T05:22:36;95714.19;;;2.73;100.00
71956;BME280;59829;50.562;6.258;2022-12-07T05:32:36;95718.69;;;2.68;100.00
71956;BME280;59829;50.562;6.258;2022-12-07T05:42:37;95713.94;;;2.62;100.00
71956;BME280;59829;50.562;6.258;2022-12-07T05:52:37;95720.63;;;2.46;100.00
71956;BME280;59829;50.562;6.258;2022-12-07T06:02:37;95716.19;;;2.34;100.00
71956;BME280;59829;50.562;6.258;2022-12-07T06:12:38;95717.81;;;2.52;100.00
71956;BME280;59829;50.562;6.258;2022-12-07T06:22:39;95711.53;;;2.59;100.00
71956;BME280;59829;50.562;6.258;2022-12-07T06:32:39;95702.13;;;2.28;100.00
71956;BME280;59829;50.562;6.258;2022-12-07T06:42:40;95710.38;;;2.49;100.00
71956;BME280;59829;50.562;6.258;2022-12-07T06:52:40;95703.03;;;2.45;100.00
71956;BME280;59829;50.562;6.258;2022-12-07T07:02:40;95713.78;;;2.48;100.00
71956;BME280;59829;50.562;6.258;2022-12-07T07:12:41;95717.66;;;2.38;100.00
71956;BME280;59829;50.562;6.258;2022-12-07T07:22:41;95731.72;;;2.44;100.00
71956;BME280;59829;50.562;6.258;2022-12-07T07:32:41;95732.66;;;2.41;100.00
71956;BME280;59829;50.562;6.258;2022-12-07T07:42:41;95741.84;;;2.44;100.00
71956;BME280;59829;50.562;6.258;2022-12-07T07:52:42;95733.44;;;2.60;100.00
71956;BME280;59829;50.562;6.258;2022-12-07T08:02:42;95736.97;;;2.73;100.00
71956;BME280;59829;50.562;6.258;2022-12-07T08:12:43;95744.13;;;2.65;100.00
71956;BME280;59829;50.562;6.258;2022-12-07T08:23:02;95746.34;;;2.54;100.00
71956;BME280;59829;50.562;6.258;2022-12-07T08:33:03;95751.31;;;2.73;100.00
71956;BME280;59829;50.562;6.258;2022-12-07T08:43:03;95740.41;;;2.55;100.00
71956;BME280;59829;50.562;6.258;2022-12-07T08:53:05;95746.19;;;2.75;100.00
71956;BME280;59829;50.562;6.258;2022-12-07T09:03:06;95746.31;;;2.89;100.00
71956;BME280;59829;50.562;6.258;2022-12-07T09:13:06;95735.66;;;2.99;100.00
71956;BME280;59829;50.562;6.258;2022-12-07T09:23:07;95732.34;;;3.15;100.00
71956;BME280;59829;50.562;6.258;2022-12-07T09:33:07;95741.88;;;3.10;100.00
71956;BME280;59829;50.562;6.258;2022-12-07T09:43:13;95736.50;;;3.16;100.00
71956;BME280;59829;50.562;6.258;2022-12-07T09:53:24;95727.53;;;3.42;100.00
71956;BME280;59829;50.562;6.258;2022-12-07T10:03:27;95727.38;;;3.45;100.00
71956;BME280;59829;50.562;6.258;2022-12-07T10:23:41;95719.38;;;3.68;100.00
71956;BME280;59829;50.562;6.258;2022-12-07T10:33:53;95713.50;;;3.83;100.00
71956;BME280;59829;50.562;6.258;2022-12-07T10:43:56;95699.59;;;3.43;100.00
71956;BME280;59829;50.562;6.258;2022-12-07T10:54:10;95693.25;;;3.36;100.00
71956;BME280;59829;50.562;6.258;2022-12-07T11:04:35;95676.16;;;3.40;100.00
71956;BME280;59829;50.562;6.258;2022-12-07T11:35:34;95633.34;;;3.97;100.00
71956;BME280;59829;50.562;6.258;2022-12-07T11:45:41;95624.16;;;4.10;100.00
71956;BME280;59829;50.562;6.258;2022-12-07T11:56:07;95617.00;;;4.02;100.00
71956;BME280;59829;50.562;6.258;2022-12-07T12:06:08;95620.44;;;4.01;100.00
71956;BME280;59829;50.562;6.258;2022-12-07T12:16:21;95604.34;;;4.45;100.00
71956;BME280;59829;50.562;6.258;2022-12-07T12:26:32;95589.28;;;5.53;100.00
71956;BME280;59829;50.562;6.258;2022-12-07T12:57:26;95567.31;;;4.28;100.00
71956;BME280;59829;50.562;6.258;2022-12-07T13:17:58;95574.41;;;3.63;100.00
71956;BME280;59829;50.562;6.258;2022-12-07T13:28:14;95578.09;;;3.27;100.00
71956;BME280;59829;50.562;6.258;2022-12-07T13:38:34;95548.19;;;3.50;100.00
71956;BME280;59829;50.562;6.258;2022-12-07T13:48:44;95542.94;;;3.53;100.00
71956;BME280;59829;50.562;6.258;2022-12-07T13:58:44;95541.25;;;3.38;100.00
71956;BME280;59829;50.562;6.258;2022-12-07T14:08:45;95532.97;;;3.50;100.00
71956;BME280;59829;50.562;6.258;2022-12-07T14:18:46;95537.66;;;2.96;100.00
71956;BME280;59829;50.562;6.258;2022-12-07T14:28:47;95522.41;;;3.27;100.00
71956;BME280;59829;50.562;6.258;2022-12-07T14:38:47;95514.78;;;3.13;100.00
71956;BME280;59829;50.562;6.258;2022-12-07T14:48:49;95509.59;;;3.30;100.00
71956;BME280;59829;50.562;6.258;2022-12-07T14:58:50;95509.38;;;3.19;100.00
71956;BME280;59829;50.562;6.258;2022-12-07T15:08:50;95501.06;;;3.01;100.00
71956;BME280;59829;50.562;6.258;2022-12-07T15:18:50;95489.56;;;2.96;100.00
71956;BME280;59829;50.562;6.258;2022-12-07T15:28:53;95490.94;;;3.01;100.00
71956;BME280;59829;50.562;6.258;2022-12-07T15:38:54;95480.69;;;2.89;100.00
71956;BME280;59829;50.562;6.258;2022-12-07T15:48:54;95483.47;;;2.68;100.00
71956;BME280;59829;50.562;6.258;2022-12-07T15:58:56;95480.63;;;2.27;100.00
71956;BME280;59829;50.562;6.258;2022-12-07T16:08:56;95475.94;;;2.20;100.00
71956;BME280;59829;50.562;6.258;2022-12-07T16:18:57;95459.66;;;2.41;100.00
71956;BME280;59829;50.562;6.258;2022-12-07T16:28:57;95461.63;;;2.36;100.00
71956;BME280;59829;50.562;6.258;2022-12-07T16:38:58;95462.19;;;2.41;100.00
71956;BME280;59829;50.562;6.258;2022-12-07T16:48:59;95464.03;;;2.22;100.00
71956;BME280;59829;50.562;6.258;2022-12-07T16:59:00;95446.94;;;2.42;100.00
71956;BME280;59829;50.562;6.258;2022-12-07T17:09:02;95441.81;;;2.44;100.00
71956;BME280;59829;50.562;6.258;2022-12-07T17:19:06;95435.84;;;2.61;100.00
71956;BME280;59829;50.562;6.258;2022-12-07T17:29:07;95430.03;;;2.59;100.00
71956;BME280;59829;50.562;6.258;2022-12-07T17:39:10;95438.28;;;2.62;100.00
71956;BME280;59829;50.562;6.258;2022-12-07T17:49:11;95431.75;;;2.58;100.00
71956;BME280;59829;50.562;6.258;2022-12-07T17:59:11;95426.88;;;2.55;100.00
71956;BME280;59829;50.562;6.258;2022-12-07T18:09:11;95417.75;;;2.53;100.00
71956;BME280;59829;50.562;6.258;2022-12-07T18:19:12;95408.59;;;2.50;100.00
71956;BME280;59829;50.562;6.258;2022-12-07T18:29:15;95400.56;;;2.28;100.00
71956;BME280;59829;50.562;6.258;2022-12-07T18:39:16;95397.97;;;2.59;100.00
71956;BME280;59829;50.562;6.258;2022-12-07T18:49:18;95391.28;;;2.28;100.00
71956;BME280;59829;50.562;6.258;2022-12-07T18:59:19;95382.16;;;2.26;100.00
71956;BME280;59829;50.562;6.258;2022-12-07T19:09:38;95385.78;;;2.36;100.00
71956;BME280;59829;50.562;6.258;2022-12-07T19:19:45;95367.78;;;2.26;100.00
71956;BME280;59829;50.562;6.258;2022-12-07T19:29:47;95370.47;;;2.23;100.00
71956;BME280;59829;50.562;6.258;2022-12-07T19:39:47;95372.91;;;2.25;100.00
71956;BME280;59829;50.562;6.258;2022-12-07T19:49:50;95371.94;;;2.11;100.00
71956;BME280;59829;50.562;6.258;2022-12-07T19:59:51;95360.22;;;2.10;100.00
71956;BME280;59829;50.562;6.258;2022-12-07T20:09:51;95368.84;;;2.06;100.00
71956;BME280;59829;50.562;6.258;2022-12-07T20:19:51;95370.00;;;2.01;100.00
71956;BME280;59829;50.562;6.258;2022-12-07T20:29:51;95362.97;;;2.22;100.00
71956;BME280;59829;50.562;6.258;2022-12-07T20:39:52;95344.22;;;2.26;100.00
71956;BME280;59829;50.562;6.258;2022-12-07T20:49:52;95342.25;;;2.31;100.00
71956;BME280;59829;50.562;6.258;2022-12-07T20:59:52;95332.25;;;2.29;100.00
71956;BME280;59829;50.562;6.258;2022-12-07T21:09:53;95329.38;;;2.20;100.00
71956;BME280;59829;50.562;6.258;2022-12-07T21:19:53;95307.53;;;2.19;100.00
71956;BME280;59829;50.562;6.258;2022-12-07T21:29:53;95306.44;;;2.08;100.00
71956;BME280;59829;50.562;6.258;2022-12-07T21:39:53;95290.75;;;2.18;100.00
71956;BME280;59829;50.562;6.258;2022-12-07T21:49:54;95278.19;;;2.32;100.00
71956;BME280;59829;50.562;6.258;2022-12-07T21:59:55;95285.22;;;2.27;100.00
71956;BME280;59829;50.562;6.258;2022-12-07T22:09:56;95281.00;;;2.11;100.00
71956;BME280;59829;50.562;6.258;2022-12-07T22:19:56;95269.25;;;2.10;100.00
71956;BME280;59829;50.562;6.258;2022-12-07T22:29:57;95269.25;;;2.10;100.00
71956;BME280;59829;50.562;6.258;2022-12-07T22:39:57;95256.47;;;2.14;100.00
71956;BME280;59829;50.562;6.258;2022-12-07T22:49:57;95249.06;;;2.10;100.00
71956;BME280;59829;50.562;6.258;2022-12-07T22:59:59;95241.25;;;1.99;100.00
71956;BME280;59829;50.562;6.258;2022-12-07T23:09:59;95221.19;;;2.12;100.00
71956;BME280;59829;50.562;6.258;2022-12-07T23:20:00;95217.47;;;2.18;100.00
71956;BME280;59829;50.562;6.258;2022-12-07T23:30:00;95197.81;;;2.23;100.00
71956;BME280;59829;50.562;6.258;2022-12-07T23:40:00;95200.59;;;2.18;100.00
71956;BME280;59829;50.562;6.258;2022-12-07T23:50:01;95189.28;;;1.95;100.00
